createdAt,value
2023-05-23T00:01:19.651Z,18.30
2023-05-23T00:03:49.511Z,18.40
2023-05-23T00:06:22.080Z,18.40
2023-05-23T00:08:50.701Z,18.40
2023-05-23T00:11:20.221Z,18.40
2023-05-23T00:13:48.016Z,18.40
2023-05-23T00:16:17.268Z,18.40
2023-05-23T00:18:45.872Z,18.40
2023-05-23T00:21:14.027Z,18.40
2023-05-23T00:23:42.284Z,18.40
2023-05-23T00:26:10.100Z,18.40
2023-05-23T00:28:38.833Z,18.40
2023-05-23T00:31:07.109Z,18.40
2023-05-23T00:33:37.140Z,18.40
2023-05-23T00:36:06.125Z,18.40
2023-05-23T00:38:34.431Z,18.40
2023-05-23T00:41:04.290Z,18.40
2023-05-23T00:43:33.103Z,18.40
2023-05-23T00:46:02.000Z,18.40
2023-05-23T00:48:30.527Z,18.40
2023-05-23T00:51:00.145Z,18.30
2023-05-23T00:53:28.688Z,18.30
2023-05-23T00:55:56.670Z,18.30
2023-05-23T00:58:25.542Z,18.30
2023-05-23T01:00:54.599Z,18.30
2023-05-23T01:03:23.831Z,18.30
2023-05-23T01:05:52.002Z,18.30
2023-05-23T01:08:22.969Z,18.30
2023-05-23T01:10:51.501Z,18.30
2023-05-23T01:13:29.228Z,18.30
2023-05-23T01:16:04.710Z,18.30
2023-05-23T01:18:38.324Z,18.30
2023-05-23T01:21:10.931Z,18.30
2023-05-23T01:24:04.967Z,18.30
2023-05-23T01:26:37.699Z,18.20
2023-05-23T01:29:23.932Z,18.10
2023-05-23T01:31:54.703Z,18.00
2023-05-23T01:34:23.481Z,18.00
2023-05-23T01:36:54.996Z,17.90
2023-05-23T01:39:22.841Z,17.90
2023-05-23T01:41:51.367Z,17.80
2023-05-23T01:44:21.462Z,17.70
2023-05-23T01:46:49.975Z,17.60
2023-05-23T01:49:19.443Z,17.60
2023-05-23T01:51:50.690Z,17.50
2023-05-23T01:54:19.752Z,17.40
2023-05-23T01:56:49.245Z,17.40
2023-05-23T01:59:17.240Z,17.30
2023-05-23T02:01:47.045Z,17.30
2023-05-23T02:04:15.878Z,17.30
2023-05-23T02:06:44.540Z,17.20
2023-05-23T02:09:12.354Z,17.20
2023-05-23T02:11:40.406Z,17.20
2023-05-23T02:14:08.935Z,17.10
2023-05-23T02:16:36.880Z,17.10
2023-05-23T02:19:06.573Z,17.10
2023-05-23T02:21:35.576Z,17.00
2023-05-23T02:24:03.645Z,17.00
2023-05-23T02:26:31.507Z,17.00
2023-05-23T02:28:59.557Z,16.90
2023-05-23T02:31:28.001Z,16.80
2023-05-23T02:33:55.886Z,16.80
2023-05-23T02:36:25.022Z,16.80
2023-05-23T02:38:52.810Z,16.70
2023-05-23T02:41:21.263Z,16.70
2023-05-23T02:43:49.279Z,16.70
2023-05-23T02:46:17.174Z,16.70
2023-05-23T02:48:45.431Z,16.70
2023-05-23T02:51:14.044Z,16.70
2023-05-23T02:53:43.135Z,16.70
2023-05-23T02:56:11.662Z,16.70
2023-05-23T02:58:39.984Z,16.70
2023-05-23T03:01:08.917Z,16.60
2023-05-23T03:03:37.115Z,16.70
2023-05-23T03:06:06.317Z,16.70
2023-05-23T03:08:34.406Z,16.70
2023-05-23T03:11:03.683Z,16.70
2023-05-23T03:13:31.882Z,16.70
2023-05-23T03:15:59.843Z,16.60
2023-05-23T03:18:27.619Z,16.70
2023-05-23T03:20:55.551Z,16.60
2023-05-23T03:23:23.459Z,16.60
2023-05-23T03:25:51.394Z,16.50
2023-05-23T03:28:20.706Z,16.50
2023-05-23T03:30:48.678Z,16.50
2023-05-23T03:33:16.502Z,16.50
2023-05-23T03:35:44.737Z,16.50
2023-05-23T03:38:12.805Z,16.50
2023-05-23T03:40:40.704Z,16.40
2023-05-23T03:43:09.522Z,16.40
2023-05-23T03:45:39.042Z,16.50
2023-05-23T03:48:07.086Z,16.40
2023-05-23T03:50:34.906Z,16.30
2023-05-23T03:53:03.082Z,16.30
2023-05-23T03:55:33.107Z,16.30
2023-05-23T03:58:01.327Z,16.30
2023-05-23T04:00:29.409Z,16.30
2023-05-23T04:02:58.702Z,16.30
2023-05-23T04:05:26.965Z,16.30
2023-05-23T04:07:54.928Z,16.30
2023-05-23T04:10:22.812Z,16.30
2023-05-23T04:12:51.665Z,16.30
2023-05-23T04:15:21.667Z,16.30
2023-05-23T04:17:49.758Z,16.20
2023-05-23T04:20:19.008Z,16.20
2023-05-23T04:22:46.952Z,16.20
2023-05-23T04:25:14.757Z,16.20
2023-05-23T04:27:42.736Z,16.20
2023-05-23T04:30:11.740Z,16.10
2023-05-23T04:32:40.172Z,16.20
2023-05-23T04:35:08.776Z,16.10
2023-05-23T04:37:37.899Z,16.10
2023-05-23T04:40:07.163Z,16.10
2023-05-23T04:42:36.135Z,16.10
2023-05-23T04:45:03.923Z,16.20
2023-05-23T04:47:36.951Z,16.20
2023-05-23T04:50:05.749Z,16.20
2023-05-23T04:52:34.075Z,16.20
2023-05-23T04:55:03.732Z,16.20
2023-05-23T04:57:31.647Z,16.30
2023-05-23T04:59:59.445Z,16.20
2023-05-23T05:02:27.739Z,16.20
2023-05-23T05:04:55.612Z,16.20
2023-05-23T05:07:23.359Z,16.20
2023-05-23T05:09:51.366Z,16.20
2023-05-23T05:12:20.782Z,16.20
2023-05-23T05:14:48.543Z,16.20
2023-05-23T05:17:16.949Z,16.20
2023-05-23T05:19:44.799Z,16.20
2023-05-23T05:22:12.639Z,16.20
2023-05-23T05:24:41.437Z,16.20
2023-05-23T05:27:11.591Z,16.20
2023-05-23T05:29:40.770Z,16.20
2023-05-23T05:32:09.678Z,16.20
2023-05-23T05:34:37.990Z,16.20
2023-05-23T05:37:06.259Z,16.20
2023-05-23T05:39:34.135Z,16.20
2023-05-23T05:42:03.912Z,16.20
2023-05-23T05:44:31.734Z,16.20
2023-05-23T05:47:00.873Z,16.20
2023-05-23T05:49:28.631Z,16.20
2023-05-23T05:51:56.345Z,16.20
2023-05-23T05:54:24.211Z,16.20
2023-05-23T05:56:51.965Z,16.20
2023-05-23T05:59:19.996Z,16.20
2023-05-23T06:01:47.930Z,16.20
2023-05-23T06:04:17.422Z,16.30
2023-05-23T06:06:45.425Z,16.30
2023-05-23T06:09:13.252Z,16.40
2023-05-23T06:11:41.398Z,16.40
2023-05-23T06:14:09.599Z,16.50
2023-05-23T06:16:37.908Z,16.40
2023-05-23T06:19:05.799Z,16.50
2023-05-23T06:21:34.966Z,16.40
2023-05-23T06:24:02.770Z,16.50
2023-05-23T06:26:30.741Z,16.40
2023-05-23T06:28:58.734Z,16.40
2023-05-23T06:31:26.499Z,16.40
2023-05-23T06:33:54.431Z,16.30
2023-05-23T06:36:22.284Z,16.30
2023-05-23T06:38:51.465Z,16.30
2023-05-23T06:41:19.418Z,16.20
2023-05-23T06:43:47.237Z,16.20
2023-05-23T06:46:15.028Z,16.20
2023-05-23T06:48:42.887Z,16.10
2023-05-23T06:51:11.392Z,16.10
2023-05-23T06:53:39.242Z,16.10
2023-05-23T06:56:08.712Z,16.10
2023-05-23T06:58:36.475Z,16.10
2023-05-23T07:01:04.531Z,16.00
2023-05-23T07:03:32.805Z,16.00
2023-05-23T07:06:00.682Z,16.00
2023-05-23T07:08:28.462Z,16.00
2023-05-23T07:10:56.387Z,16.00
2023-05-23T07:13:25.728Z,15.90
2023-05-23T07:15:53.580Z,15.90
2023-05-23T07:18:22.055Z,15.90
2023-05-23T07:20:50.269Z,15.90
2023-05-23T07:23:18.237Z,15.80
2023-05-23T07:26:01.265Z,15.80
2023-05-23T07:28:31.302Z,15.80
2023-05-23T07:30:59.282Z,15.80
2023-05-23T07:33:27.127Z,15.80
2023-05-23T07:35:54.935Z,15.80
2023-05-23T07:38:22.858Z,15.80
2023-05-23T07:41:02.559Z,15.80
2023-05-23T07:43:36.364Z,15.80
2023-05-23T07:46:04.153Z,15.80
2023-05-23T07:48:32.079Z,15.90
2023-05-23T07:51:00.350Z,15.90
2023-05-23T07:53:28.145Z,15.90
2023-05-23T07:55:56.584Z,15.90
2023-05-23T07:58:24.353Z,16.00
2023-05-23T08:00:53.554Z,16.00
2023-05-23T08:03:21.412Z,16.00
2023-05-23T08:05:49.939Z,16.00
2023-05-23T08:08:17.967Z,16.00
2023-05-23T08:10:47.281Z,16.00
2023-05-23T08:13:15.107Z,16.00
2023-05-23T08:15:42.910Z,16.10
2023-05-23T08:18:12.509Z,16.10
2023-05-23T08:20:40.597Z,16.10
2023-05-23T08:23:08.584Z,16.10
2023-05-23T08:25:36.622Z,16.10
2023-05-23T08:28:04.589Z,16.00
2023-05-23T08:30:33.555Z,16.00
2023-05-23T08:33:04.686Z,16.00
2023-05-23T08:35:36.336Z,15.90
2023-05-23T08:38:09.079Z,15.90
2023-05-23T08:40:37.756Z,15.80
2023-05-23T08:43:06.163Z,15.70
2023-05-23T08:45:34.668Z,15.70
2023-05-23T08:48:02.991Z,15.60
2023-05-23T08:50:33.292Z,15.70
2023-05-23T08:53:01.378Z,15.60
2023-05-23T08:55:30.334Z,15.60
2023-05-23T08:58:00.275Z,15.50
2023-05-23T09:00:29.356Z,15.40
2023-05-23T09:02:58.404Z,15.40
2023-05-23T09:05:28.164Z,15.30
2023-05-23T09:07:57.620Z,15.20
2023-05-23T09:10:25.774Z,15.00
2023-05-23T09:12:53.491Z,14.90
2023-05-23T09:15:22.303Z,14.80
2023-05-23T09:17:50.489Z,14.70
2023-05-23T09:20:19.328Z,14.70
2023-05-23T09:22:49.035Z,14.60
2023-05-23T09:25:18.139Z,14.60
2023-05-23T09:27:48.158Z,14.60
2023-05-23T09:30:17.031Z,14.70
2023-05-23T09:32:57.735Z,14.70
2023-05-23T09:35:26.050Z,14.70
2023-05-23T09:37:56.153Z,14.70
2023-05-23T09:40:31.022Z,14.60
2023-05-23T09:43:03.986Z,14.70
2023-05-23T09:45:33.153Z,14.70
2023-05-23T09:48:01.667Z,14.70
2023-05-23T09:50:33.391Z,14.60
2023-05-23T09:53:01.403Z,14.60
2023-05-23T09:55:30.814Z,14.70
2023-05-23T09:58:00.936Z,14.60
2023-05-23T10:00:29.536Z,14.60
2023-05-23T10:03:02.304Z,14.60
2023-05-23T10:05:37.315Z,14.60
2023-05-23T10:08:10.876Z,14.60
2023-05-23T10:11:33.436Z,14.60
2023-05-23T10:14:03.546Z,14.60
2023-05-23T10:16:39.156Z,14.60
2023-05-23T10:19:11.859Z,14.50
2023-05-23T10:21:46.604Z,14.50
2023-05-23T10:24:15.906Z,14.50
2023-05-23T10:26:47.076Z,14.50
2023-05-23T10:29:15.048Z,14.50
2023-05-23T10:31:43.686Z,14.50
2023-05-23T10:34:18.838Z,14.50
2023-05-23T10:36:57.019Z,14.50
2023-05-23T10:39:37.946Z,14.60
2023-05-23T10:42:13.125Z,14.60
2023-05-23T10:44:41.041Z,14.70
2023-05-23T10:47:09.054Z,14.80
2023-05-23T10:49:40.820Z,14.80
2023-05-23T10:52:10.270Z,14.80
2023-05-23T10:54:42.419Z,14.80
2023-05-23T10:57:12.897Z,14.80
2023-05-23T10:59:41.272Z,14.80
2023-05-23T11:02:15.273Z,14.90
2023-05-23T11:04:43.471Z,14.90
2023-05-23T11:07:30.207Z,15.10
2023-05-23T11:10:11.219Z,15.10
2023-05-23T11:12:42.233Z,15.20
2023-05-23T11:15:22.366Z,15.30
2023-05-23T11:17:54.781Z,15.40
2023-05-23T11:20:27.224Z,15.50
2023-05-23T11:22:56.122Z,15.60
2023-05-23T11:25:41.354Z,15.70
2023-05-23T11:28:11.058Z,15.80
2023-05-23T11:30:39.410Z,15.90
2023-05-23T11:33:21.416Z,16.00
2023-05-23T11:35:51.778Z,16.00
2023-05-23T11:38:20.679Z,16.10
2023-05-23T11:40:49.361Z,16.10
2023-05-23T11:43:19.590Z,16.20
2023-05-23T11:45:47.690Z,16.30
2023-05-23T11:48:17.466Z,16.30
2023-05-23T11:50:47.258Z,16.40
2023-05-23T11:53:17.479Z,16.50
2023-05-23T11:55:51.153Z,16.50
2023-05-23T11:58:20.538Z,16.40
2023-05-23T12:00:48.694Z,16.40
2023-05-23T12:03:17.346Z,16.30
2023-05-23T12:05:46.050Z,16.40
2023-05-23T12:08:14.912Z,16.50
2023-05-23T12:10:51.100Z,16.70
2023-05-23T12:13:20.457Z,16.90
2023-05-23T12:15:49.602Z,17.00
2023-05-23T12:18:20.964Z,17.00
2023-05-23T12:20:50.392Z,17.00
2023-05-23T12:23:21.992Z,17.00
2023-05-23T12:25:52.917Z,17.00
2023-05-23T12:28:23.665Z,17.10
2023-05-23T12:30:51.450Z,17.00
2023-05-23T12:33:20.856Z,17.10
2023-05-23T12:35:48.749Z,17.20
2023-05-23T12:38:17.536Z,17.30
2023-05-23T12:40:45.481Z,17.40
2023-05-23T12:43:13.223Z,17.40
2023-05-23T12:45:43.660Z,17.40
2023-05-23T12:48:11.765Z,17.40
2023-05-23T12:50:39.742Z,17.40
2023-05-23T12:53:07.529Z,17.40
2023-05-23T12:55:35.586Z,17.30
2023-05-23T12:58:03.590Z,17.10
2023-05-23T13:00:31.884Z,16.90
2023-05-23T13:03:01.455Z,16.70
2023-05-23T13:05:29.262Z,16.70
2023-05-23T13:07:59.417Z,16.70
2023-05-23T13:10:29.492Z,16.70
2023-05-23T13:12:58.820Z,16.90
2023-05-23T13:15:26.656Z,17.00
2023-05-23T13:17:58.039Z,17.20
2023-05-23T13:20:30.306Z,17.20
2023-05-23T13:22:58.557Z,17.30
2023-05-23T13:25:26.947Z,17.50
2023-05-23T13:27:55.882Z,17.60
2023-05-23T13:30:25.388Z,17.60
2023-05-23T13:32:53.168Z,17.50
2023-05-23T13:35:21.588Z,17.50
2023-05-23T13:37:50.739Z,17.50
2023-05-23T13:40:20.123Z,17.60
2023-05-23T13:42:51.163Z,17.60
2023-05-23T13:45:19.446Z,17.60
2023-05-23T13:47:47.743Z,17.60
2023-05-23T13:50:16.237Z,17.60
2023-05-23T13:52:47.312Z,17.80
2023-05-23T13:55:19.074Z,17.80
2023-05-23T13:57:47.353Z,17.70
2023-05-23T14:00:16.180Z,17.50
2023-05-23T14:02:43.970Z,17.50
2023-05-23T14:05:12.171Z,17.50
2023-05-23T14:07:41.382Z,17.50
2023-05-23T14:10:09.936Z,17.50
2023-05-23T14:12:39.269Z,17.40
2023-05-23T14:15:08.505Z,17.30
2023-05-23T14:17:36.283Z,17.20
2023-05-23T14:20:04.551Z,17.10
2023-05-23T14:22:32.398Z,17.00
2023-05-23T14:25:00.282Z,16.90
2023-05-23T14:27:28.142Z,16.80
2023-05-23T14:29:57.264Z,16.90
2023-05-23T14:32:25.249Z,16.90
2023-05-23T14:34:53.062Z,16.80
2023-05-23T14:37:20.846Z,16.80
2023-05-23T14:39:48.609Z,16.60
2023-05-23T14:42:16.500Z,16.50
2023-05-23T14:44:44.248Z,16.40
2023-05-23T14:47:13.339Z,16.40
2023-05-23T14:49:41.172Z,16.30
2023-05-23T14:52:08.946Z,16.30
2023-05-23T14:54:36.809Z,16.20
2023-05-23T14:57:05.006Z,16.20
2023-05-23T14:59:32.833Z,16.10
2023-05-23T15:02:00.652Z,16.10
2023-05-23T15:04:29.897Z,16.00
2023-05-23T15:06:58.077Z,16.10
2023-05-23T15:09:25.819Z,16.10
2023-05-23T15:11:54.232Z,16.00
2023-05-23T15:14:22.544Z,16.00
2023-05-23T15:16:51.239Z,15.90
2023-05-23T15:19:19.363Z,15.90
2023-05-23T15:21:51.534Z,16.00
2023-05-23T15:24:20.328Z,16.00
2023-05-23T15:26:48.834Z,16.00
2023-05-23T15:29:18.162Z,16.00
2023-05-23T15:31:46.320Z,16.00
2023-05-23T15:34:14.125Z,16.00
2023-05-23T15:36:42.223Z,16.00
2023-05-23T15:39:12.436Z,16.00
2023-05-23T15:41:41.008Z,16.00
2023-05-23T15:44:09.028Z,16.00
2023-05-23T15:46:37.080Z,16.00
2023-05-23T15:49:13.715Z,15.90
2023-05-23T15:51:49.499Z,15.80
2023-05-23T15:54:18.628Z,15.80
2023-05-23T15:56:46.465Z,15.90
2023-05-23T15:59:14.363Z,16.00
2023-05-23T16:01:42.576Z,16.00
2023-05-23T16:04:10.706Z,16.00
2023-05-23T16:06:40.134Z,15.90
2023-05-23T16:09:07.930Z,16.00
2023-05-23T16:11:37.137Z,16.00
2023-05-23T16:14:04.903Z,16.00
2023-05-23T16:16:32.716Z,15.90
2023-05-23T16:19:00.574Z,15.90
2023-05-23T16:21:28.341Z,15.80
2023-05-23T16:23:56.118Z,15.60
2023-05-23T16:26:24.252Z,15.50
2023-05-23T16:28:53.811Z,15.40
2023-05-23T16:31:27.779Z,15.30
2023-05-23T16:33:55.802Z,15.30
2023-05-23T16:36:24.013Z,15.20
2023-05-23T16:38:54.689Z,15.20
2023-05-23T16:41:23.351Z,15.20
2023-05-23T16:43:51.625Z,15.20
2023-05-23T16:46:22.353Z,15.10
2023-05-23T16:48:50.308Z,15.10
2023-05-23T16:51:18.210Z,15.10
2023-05-23T16:53:46.035Z,15.20
2023-05-23T16:56:13.784Z,15.20
2023-05-23T16:58:41.775Z,15.30
2023-05-23T17:01:09.946Z,15.30
2023-05-23T17:03:41.315Z,15.30
2023-05-23T17:06:09.327Z,15.30
2023-05-23T17:08:37.116Z,15.20
2023-05-23T17:11:05.130Z,15.10
2023-05-23T17:13:32.928Z,14.90
2023-05-23T17:16:00.701Z,14.80
2023-05-23T17:18:28.664Z,14.80
2023-05-23T17:20:57.734Z,14.80
2023-05-23T17:23:25.553Z,14.70
2023-05-23T17:25:53.346Z,14.70
2023-05-23T17:28:21.119Z,14.70
2023-05-23T17:30:48.902Z,14.60
2023-05-23T17:33:16.701Z,14.50
2023-05-23T17:35:45.838Z,14.40
2023-05-23T17:38:14.995Z,14.30
2023-05-23T17:40:43.052Z,14.30
2023-05-23T17:43:10.984Z,14.20
2023-05-23T17:45:38.771Z,14.10
2023-05-23T17:48:07.317Z,14.10
2023-05-23T17:50:35.299Z,14.00
2023-05-23T17:53:04.319Z,14.00
2023-05-23T17:55:33.658Z,14.00
2023-05-23T17:58:01.421Z,13.90
2023-05-23T18:00:29.620Z,13.90
2023-05-23T18:02:57.923Z,13.80
2023-05-23T18:05:27.297Z,13.70
2023-05-23T18:07:55.078Z,13.70
2023-05-23T18:10:22.863Z,13.60
2023-05-23T18:12:51.927Z,13.60
2023-05-23T18:15:19.716Z,13.50
2023-05-23T18:17:47.553Z,13.50
2023-05-23T18:20:15.603Z,13.40
2023-05-23T18:22:43.336Z,13.40
2023-05-23T18:25:11.804Z,13.30
2023-05-23T18:27:39.558Z,13.30
2023-05-23T18:30:10.043Z,13.30
2023-05-23T18:32:37.831Z,13.30
2023-05-23T18:35:06.500Z,13.20
2023-05-23T18:37:34.263Z,13.20
2023-05-23T18:40:02.121Z,13.20
2023-05-23T18:42:30.860Z,13.10
2023-05-23T18:44:58.636Z,13.10
2023-05-23T18:47:27.825Z,13.10
2023-05-23T18:49:55.627Z,13.00
2023-05-23T18:52:23.360Z,13.00
2023-05-23T18:54:53.544Z,13.00
2023-05-23T18:57:24.650Z,13.00
2023-05-23T18:59:52.866Z,12.90
2023-05-23T19:02:20.742Z,12.90
2023-05-23T19:04:49.951Z,12.90
2023-05-23T19:07:17.735Z,12.90
2023-05-23T19:09:47.101Z,12.80
2023-05-23T19:12:15.180Z,12.80
2023-05-23T19:14:43.070Z,12.80
2023-05-23T19:17:11.459Z,12.80
2023-05-23T19:19:39.448Z,12.70
2023-05-23T19:22:08.529Z,12.70
2023-05-23T19:24:37.265Z,12.70
2023-05-23T19:27:06.225Z,12.60
2023-05-23T19:29:34.063Z,12.50
2023-05-23T19:32:01.813Z,12.50
2023-05-23T19:34:29.589Z,12.40
2023-05-23T19:36:57.893Z,12.40
2023-05-23T19:39:27.362Z,12.30
2023-05-23T19:41:55.079Z,12.30
2023-05-23T19:44:22.794Z,12.20
2023-05-23T19:46:50.588Z,12.10
2023-05-23T19:49:19.253Z,12.00
2023-05-23T19:51:47.035Z,12.00
2023-05-23T19:54:15.256Z,11.90
2023-05-23T19:56:45.529Z,11.90
2023-05-23T19:59:13.563Z,11.80
2023-05-23T20:01:41.619Z,11.80
2023-05-23T20:04:12.634Z,11.70
2023-05-23T20:06:40.710Z,11.70
2023-05-23T20:09:08.604Z,11.70
2023-05-23T20:11:36.410Z,11.60
2023-05-23T20:14:05.477Z,11.60
2023-05-23T20:16:33.592Z,11.60
2023-05-23T20:19:01.478Z,11.60
2023-05-23T20:21:29.241Z,11.60
2023-05-23T20:23:56.995Z,11.60
2023-05-23T20:26:25.913Z,11.70
2023-05-23T20:28:53.677Z,11.70
2023-05-23T20:31:22.976Z,11.70
2023-05-23T20:33:52.512Z,11.60
2023-05-23T20:36:20.983Z,11.70
2023-05-23T20:38:48.828Z,11.70
2023-05-23T20:41:16.689Z,11.70
2023-05-23T20:43:46.186Z,11.60
2023-05-23T20:46:14.568Z,11.70
2023-05-23T20:48:43.870Z,11.70
2023-05-23T20:51:11.994Z,11.70
2023-05-23T20:53:39.880Z,11.70
2023-05-23T20:56:10.203Z,11.70
2023-05-23T20:58:38.000Z,11.60
2023-05-23T21:01:06.274Z,11.60
2023-05-23T21:03:34.340Z,11.60
2023-05-23T21:06:03.514Z,11.60
2023-05-23T21:08:33.077Z,11.60
2023-05-23T21:11:02.402Z,11.60
2023-05-23T21:13:30.376Z,11.50
2023-05-23T21:15:58.153Z,11.50
2023-05-23T21:18:26.010Z,11.50
2023-05-23T21:20:53.753Z,11.40
2023-05-23T21:23:23.056Z,11.40
2023-05-23T21:25:50.835Z,11.40
2023-05-23T21:28:18.628Z,11.30
2023-05-23T21:30:46.852Z,11.30
2023-05-23T21:33:14.677Z,11.30
2023-05-23T21:35:42.793Z,11.30
2023-05-23T21:38:10.737Z,11.30
2023-05-23T21:40:41.837Z,11.30
2023-05-23T21:43:09.783Z,11.30
2023-05-23T21:45:37.535Z,11.30
2023-05-23T21:48:05.586Z,11.20
2023-05-23T21:50:33.400Z,11.20
2023-05-23T21:53:01.208Z,11.20
2023-05-23T21:55:30.132Z,11.20
2023-05-23T21:57:59.198Z,11.20
2023-05-23T22:00:27.349Z,11.10
2023-05-23T22:02:55.198Z,11.10
2023-05-23T22:05:23.298Z,11.10
2023-05-23T22:07:51.095Z,11.10
2023-05-23T22:10:19.071Z,11.10
2023-05-23T22:12:46.847Z,11.10
2023-05-23T22:15:15.946Z,11.00
2023-05-23T22:17:43.902Z,11.00
2023-05-23T22:20:14.337Z,10.90
2023-05-23T22:22:42.209Z,11.00
2023-05-23T22:25:10.434Z,10.90
2023-05-23T22:27:38.224Z,10.90
2023-05-23T22:30:06.975Z,10.90
2023-05-23T22:32:36.104Z,10.90
2023-05-23T22:35:03.874Z,10.90
2023-05-23T22:37:31.662Z,10.90
2023-05-23T22:39:59.422Z,11.00
2023-05-23T22:42:27.187Z,11.00
2023-05-23T22:44:54.994Z,11.00
2023-05-23T22:47:22.843Z,11.00
2023-05-23T22:49:56.387Z,11.00
2023-05-23T22:52:25.376Z,11.00
2023-05-23T22:54:53.371Z,11.00
2023-05-23T22:57:21.170Z,11.00
2023-05-23T22:59:48.944Z,11.00
2023-05-23T23:02:16.790Z,11.00
2023-05-23T23:04:44.631Z,11.00
2023-05-23T23:07:13.717Z,11.00
2023-05-23T23:09:41.523Z,11.00
2023-05-23T23:12:09.367Z,11.00
2023-05-23T23:14:37.131Z,11.10
2023-05-23T23:17:05.400Z,11.10
2023-05-23T23:19:35.196Z,11.10
2023-05-23T23:22:02.990Z,11.10
2023-05-23T23:24:32.167Z,11.10
2023-05-23T23:26:59.944Z,11.10
2023-05-23T23:29:27.734Z,11.10
2023-05-23T23:31:58.716Z,11.20
2023-05-23T23:34:26.553Z,11.20
2023-05-23T23:36:54.365Z,11.20
2023-05-23T23:39:22.107Z,11.20
2023-05-23T23:41:51.284Z,11.20
2023-05-23T23:44:19.087Z,11.10
2023-05-23T23:46:46.884Z,11.10
2023-05-23T23:49:15.230Z,11.20
2023-05-23T23:51:43.090Z,11.10
2023-05-23T23:54:10.839Z,11.10
2023-05-23T23:56:38.596Z,11.10
2023-05-23T23:59:07.761Z,11.10
